createdAt,value
2023-02-25T00:00:50.054Z,21.2
2023-02-25T00:02:49.969Z,20.6
2023-02-25T00:04:49.252Z,22.8
2023-02-25T00:06:49.061Z,20.8
2023-02-25T00:08:49.598Z,21.3
2023-02-25T00:10:56.720Z,21.1
2023-02-25T00:12:48.415Z,24.6
2023-02-25T00:14:48.259Z,22.1
2023-02-25T00:16:49.171Z,23.7
2023-02-25T00:18:52.173Z,21.3
2023-02-25T00:20:47.632Z,21.6
2023-02-25T00:22:47.520Z,20.8
2023-02-25T00:24:47.166Z,21.7
2023-02-25T00:26:47.535Z,24.3
2023-02-25T00:28:46.923Z,22.8
2023-02-25T00:30:46.847Z,24.7
2023-02-25T00:32:46.474Z,23.3
2023-02-25T00:34:46.239Z,22.1
2023-02-25T00:36:46.560Z,22.7
2023-02-25T00:38:46.126Z,20.9
2023-02-25T00:40:45.659Z,21.2
2023-02-25T00:42:45.658Z,22.6
2023-02-25T00:44:46.744Z,22.1
2023-02-25T00:46:45.141Z,22.5
2023-02-25T00:48:44.889Z,22.8
2023-02-25T00:50:44.530Z,21.3
2023-02-25T00:52:44.467Z,21
2023-02-25T00:54:44.296Z,21.9
2023-02-25T00:56:44.106Z,21.4
2023-02-25T00:58:46.105Z,21.6
2023-02-25T01:00:51.580Z,21.2
2023-02-25T01:02:44.541Z,19.6
2023-02-25T01:04:43.357Z,21.8
2023-02-25T01:06:44.083Z,21.9
2023-02-25T01:08:43.278Z,21.9
2023-02-25T01:10:42.574Z,23.1
2023-02-25T01:12:42.392Z,21.2
2023-02-25T01:14:42.233Z,22.9
2023-02-25T01:16:43.649Z,21.9
2023-02-25T01:18:43.570Z,21.5
2023-02-25T01:20:41.570Z,22.6
2023-02-25T01:22:41.475Z,22.1
2023-02-25T01:24:41.445Z,21.4
2023-02-25T01:26:43.391Z,22.4
2023-02-25T01:28:41.278Z,22.6
2023-02-25T01:30:40.724Z,21.6
2023-02-25T01:32:40.691Z,21.6
2023-02-25T01:34:41.830Z,22.3
2023-02-25T01:36:40.366Z,22.6
2023-02-25T01:38:39.912Z,22.8
2023-02-25T01:40:39.893Z,22.8
2023-02-25T01:42:39.593Z,23.2
2023-02-25T01:45:10.414Z,22.6
2023-02-25T01:46:41.494Z,22.6
2023-02-25T01:48:41.283Z,23.2
2023-02-25T01:50:46.433Z,22.4
2023-02-25T01:52:41.169Z,23
2023-02-25T01:54:38.791Z,22.4
2023-02-25T01:56:42.302Z,22.2
2023-02-25T01:58:38.649Z,22.3
2023-02-25T02:00:39.012Z,23.6
2023-02-25T02:02:38.886Z,23.5
2023-02-25T02:04:40.659Z,22.8
2023-02-25T02:06:41.036Z,24.4
2023-02-25T02:08:37.664Z,23
2023-02-25T02:10:37.426Z,22.5
2023-02-25T02:12:42.305Z,23.3
2023-02-25T02:14:41.525Z,22.1
2023-02-25T02:16:55.141Z,22.8
2023-02-25T02:18:39.850Z,22.7
2023-02-25T02:20:53.379Z,23.8
2023-02-25T02:22:46.174Z,23
2023-02-25T02:24:53.724Z,25
2023-02-25T02:26:55.362Z,24.4
2023-02-25T02:29:01.987Z,23.3
2023-02-25T02:30:42.708Z,22.9
2023-02-25T02:32:40.225Z,22.9
2023-02-25T02:34:43.307Z,24.6
2023-02-25T02:36:44.135Z,24.2
2023-02-25T02:38:46.540Z,23.7
2023-02-25T02:40:44.399Z,24.2
2023-02-25T02:42:40.307Z,24.6
2023-02-25T02:44:41.877Z,23.5
2023-02-25T02:46:39.061Z,23.7
2023-02-25T02:48:40.213Z,24.7
2023-02-25T02:50:37.613Z,24.8
2023-02-25T02:52:39.071Z,25.5
2023-02-25T02:54:36.981Z,26
2023-02-25T02:56:37.434Z,25.2
2023-02-25T02:58:36.736Z,24.8
2023-02-25T03:00:39.256Z,24.9
2023-02-25T03:02:37.672Z,24.6
2023-02-25T03:04:35.437Z,24.6
2023-02-25T03:06:35.861Z,25.4
2023-02-25T03:08:37.060Z,24.5
2023-02-25T03:10:32.645Z,23.5
2023-02-25T03:12:31.471Z,24.9
2023-02-25T03:14:31.056Z,23.9
2023-02-25T03:16:37.605Z,25
2023-02-25T03:18:39.252Z,24
2023-02-25T03:20:35.766Z,24.1
2023-02-25T03:22:35.941Z,24.2
2023-02-25T03:24:37.156Z,24.6
2023-02-25T03:26:35.467Z,24.2
2023-02-25T03:28:32.171Z,24.7
2023-02-25T03:30:34.799Z,24.9
2023-02-25T03:32:32.074Z,24.4
2023-02-25T03:34:32.927Z,24.8
2023-02-25T03:36:33.105Z,24.5
2023-02-25T03:38:31.683Z,23.4
2023-02-25T03:40:31.014Z,24.2
2023-02-25T03:42:33.194Z,25.3
2023-02-25T03:44:32.481Z,25
2023-02-25T03:46:30.078Z,24.6
2023-02-25T03:48:28.755Z,25
2023-02-25T03:50:35.169Z,24.9
2023-02-25T03:52:31.616Z,25
2023-02-25T03:54:27.314Z,25
2023-02-25T03:56:27.907Z,24.6
2023-02-25T03:58:26.887Z,25.4
2023-02-25T04:00:30.370Z,25.1
2023-02-25T04:02:30.633Z,25
2023-02-25T04:04:26.500Z,25.1
2023-02-25T04:06:26.568Z,25.2
2023-02-25T04:08:26.304Z,26.1
2023-02-25T04:10:26.828Z,25.7
2023-02-25T04:12:25.580Z,25.6
2023-02-25T04:14:25.736Z,25.8
2023-02-25T04:16:25.720Z,25.6
2023-02-25T04:18:25.195Z,27.3
2023-02-25T04:20:24.902Z,25.3
2023-02-25T04:22:25.165Z,25.9
2023-02-25T04:24:24.467Z,26.4
2023-02-25T04:26:24.767Z,25.3
2023-02-25T04:28:24.137Z,25.9
2023-02-25T04:30:24.118Z,25.7
2023-02-25T04:32:24.422Z,26.2
2023-02-25T04:34:23.810Z,25.2
2023-02-25T04:36:26.722Z,25.8
2023-02-25T04:38:23.258Z,27.6
2023-02-25T04:40:23.423Z,26.5
2023-02-25T04:42:22.909Z,26.5
2023-02-25T04:44:22.748Z,25.7
2023-02-25T04:46:22.908Z,26.4
2023-02-25T04:48:22.502Z,26.9
2023-02-25T04:50:22.211Z,26
2023-02-25T04:52:22.077Z,25.9
2023-02-25T04:54:22.572Z,25.8
2023-02-25T04:56:22.166Z,26.4
2023-02-25T04:58:21.398Z,26.1
2023-02-25T05:00:23.159Z,27
2023-02-25T05:02:21.100Z,28.1
2023-02-25T05:04:20.892Z,29.1
2023-02-25T05:06:21.017Z,29.5
2023-02-25T05:08:20.674Z,28.8
2023-02-25T05:10:20.560Z,27.8
2023-02-25T05:12:20.334Z,26.7
2023-02-25T05:14:20.452Z,28
2023-02-25T05:16:20.948Z,25.6
2023-02-25T05:18:19.846Z,25.5
2023-02-25T05:20:19.663Z,27.3
2023-02-25T05:22:19.330Z,25.8
2023-02-25T05:24:20.671Z,28
2023-02-25T05:26:21.144Z,25.4
2023-02-25T05:28:18.838Z,25.5
2023-02-25T05:30:18.978Z,25.1
2023-02-25T05:32:18.599Z,30.3
2023-02-25T05:34:18.370Z,25.6
2023-02-25T05:36:18.392Z,25.7
2023-02-25T05:38:17.887Z,25.9
2023-02-25T05:40:18.147Z,25.4
2023-02-25T05:42:17.580Z,25.3
2023-02-25T05:44:17.733Z,25.7
2023-02-25T05:46:17.343Z,29.5
2023-02-25T05:48:17.149Z,29
2023-02-25T05:50:16.966Z,28.7
2023-02-25T05:52:16.867Z,28
2023-02-25T05:54:17.368Z,25.8
2023-02-25T05:56:18.872Z,26.9
2023-02-25T05:58:16.289Z,26.5
2023-02-25T06:00:17.242Z,26.1
2023-02-25T06:02:16.146Z,26.3
2023-02-25T06:04:15.759Z,25.1
2023-02-25T06:06:18.488Z,27.3
2023-02-25T06:08:15.512Z,24.5
2023-02-25T06:10:15.639Z,24.2
2023-02-25T06:12:15.342Z,23.7
2023-02-25T06:14:16.032Z,24.3
2023-02-25T06:16:15.159Z,25.1
2023-02-25T06:18:14.896Z,25.5
2023-02-25T06:20:15.058Z,26.7
2023-02-25T06:22:14.509Z,26.7
2023-02-25T06:24:14.430Z,25.9
2023-02-25T06:26:14.267Z,25.8
2023-02-25T06:28:14.015Z,25.7
2023-02-25T06:30:14.183Z,25.8
2023-02-25T06:32:14.433Z,24.4
2023-02-25T06:34:13.499Z,24.1
2023-02-25T06:36:14.330Z,26.3
2023-02-25T06:38:13.272Z,25.6
2023-02-25T06:40:13.041Z,26.2
2023-02-25T06:42:13.107Z,26.4
2023-02-25T06:44:14.845Z,26.6
2023-02-25T06:46:14.453Z,28.4
2023-02-25T06:48:12.521Z,26
2023-02-25T06:50:12.328Z,26.5
2023-02-25T06:52:12.496Z,24.4
2023-02-25T06:54:12.250Z,26
2023-02-25T06:56:13.431Z,25.8
2023-02-25T06:58:13.217Z,25.2
2023-02-25T07:00:12.813Z,25.6
2023-02-25T07:02:12.440Z,25.8
2023-02-25T07:04:15.659Z,25.5
2023-02-25T07:06:11.784Z,25
2023-02-25T07:08:11.148Z,25.1
2023-02-25T07:10:12.994Z,30.5
2023-02-25T07:12:11.566Z,25.6
2023-02-25T07:14:11.177Z,26.2
2023-02-25T07:16:11.769Z,26.5
2023-02-25T07:18:10.607Z,25.9
2023-02-25T07:20:11.601Z,25.5
2023-02-25T07:22:14.174Z,27.1
2023-02-25T07:24:10.821Z,28.7
2023-02-25T07:26:12.573Z,32.3
2023-02-25T07:28:09.892Z,32.5
2023-02-25T07:30:11.322Z,35.1
2023-02-25T07:32:09.953Z,34.9
2023-02-25T07:34:09.508Z,35.3
2023-02-25T07:36:10.903Z,34.8
2023-02-25T07:38:09.484Z,30.2
2023-02-25T07:40:10.631Z,28.2
2023-02-25T07:42:10.123Z,27.7
2023-02-25T07:44:09.091Z,28
2023-02-25T07:46:09.511Z,29
2023-02-25T07:48:08.925Z,28.4
2023-02-25T07:50:12.776Z,28.3
2023-02-25T07:52:08.567Z,32.5
2023-02-25T07:54:08.823Z,28.2
2023-02-25T07:56:09.184Z,31.4
2023-02-25T07:58:08.366Z,29.2
2023-02-25T08:00:12.901Z,30.2
2023-02-25T08:02:08.044Z,31.2
2023-02-25T08:04:07.758Z,30.1
2023-02-25T08:06:07.784Z,29.6
2023-02-25T08:08:07.581Z,26.8
2023-02-25T08:10:08.456Z,30.1
2023-02-25T08:12:07.823Z,29.8
2023-02-25T08:14:07.289Z,27.3
2023-02-25T08:16:08.985Z,29.1
2023-02-25T08:18:06.941Z,30.4
2023-02-25T08:20:08.114Z,30.7
2023-02-25T08:22:06.944Z,30.2
2023-02-25T08:24:07.166Z,29.1
2023-02-25T08:26:07.792Z,29.3
2023-02-25T08:28:06.672Z,30.6
2023-02-25T08:30:07.384Z,29
2023-02-25T08:32:06.858Z,32.1
2023-02-25T08:34:06.109Z,29.9
2023-02-25T08:36:08.637Z,30.8
2023-02-25T08:38:05.794Z,35.6
2023-02-25T08:40:07.243Z,34.7
2023-02-25T08:42:05.589Z,29
2023-02-25T08:44:05.466Z,28.6
2023-02-25T08:46:05.519Z,27.9
2023-02-25T08:48:05.277Z,27.4
2023-02-25T08:50:05.881Z,27.3
2023-02-25T08:52:05.225Z,27.7
2023-02-25T08:54:07.434Z,28.6
2023-02-25T08:56:05.817Z,28.2
2023-02-25T08:58:05.081Z,28.5
2023-02-25T09:00:06.289Z,27.7
2023-02-25T09:02:06.025Z,28.7
2023-02-25T09:04:04.861Z,30.1
2023-02-25T09:06:04.821Z,30.2
2023-02-25T09:08:04.436Z,28.1
2023-02-25T09:10:05.099Z,28.6
2023-02-25T09:12:04.827Z,27.5
2023-02-25T09:14:04.065Z,27.3
2023-02-25T09:16:04.559Z,27.7
2023-02-25T09:18:04.164Z,27.9
2023-02-25T09:20:04.629Z,28.9
2023-02-25T09:22:03.829Z,27.9
2023-02-25T09:24:03.792Z,29.8
2023-02-25T09:26:04.709Z,27.4
2023-02-25T09:28:03.279Z,27.3
2023-02-25T09:30:03.810Z,29.6
2023-02-25T09:32:03.797Z,28.4
2023-02-25T09:34:05.390Z,27.3
2023-02-25T09:36:05.927Z,28
2023-02-25T09:38:02.778Z,27.2
2023-02-25T09:40:02.772Z,27.5
2023-02-25T09:42:08.321Z,25.5
2023-02-25T09:44:06.788Z,26.1
2023-02-25T09:46:07.030Z,23.5
2023-02-25T09:48:12.332Z,24.3
2023-02-25T09:50:06.863Z,23.4
2023-02-25T09:52:12.053Z,23.5
2023-02-25T09:54:13.538Z,22.8
2023-02-25T09:56:04.897Z,23
2023-02-25T09:58:08.164Z,21.6
2023-02-25T10:00:01.436Z,22.2
2023-02-25T10:02:20.536Z,22.6
2023-02-25T10:04:07.150Z,21.5
2023-02-25T10:06:09.061Z,21.2
2023-02-25T10:08:11.559Z,22
2023-02-25T10:10:06.621Z,21.7
2023-02-25T10:12:12.463Z,21.3
2023-02-25T10:14:11.599Z,23.1
2023-02-25T10:16:11.014Z,25.6
2023-02-25T10:18:13.461Z,24
2023-02-25T10:20:24.924Z,23.2
2023-02-25T10:22:16.604Z,22.5
2023-02-25T10:24:15.117Z,22.5
2023-02-25T10:26:05.355Z,22.3
2023-02-25T10:28:02.554Z,22.4
2023-02-25T10:30:06.214Z,22.7
2023-02-25T10:32:14.851Z,22.6
2023-02-25T10:34:13.633Z,21.5
2023-02-25T10:36:06.961Z,21.6
2023-02-25T10:37:59.649Z,21.1
2023-02-25T10:40:03.448Z,22.1
2023-02-25T10:42:00.351Z,21.2
2023-02-25T10:43:59.315Z,20.2
2023-02-25T10:46:04.150Z,19.9
2023-02-25T10:48:05.963Z,20.7
2023-02-25T10:50:16.440Z,20.6
2023-02-25T10:52:01.665Z,20
2023-02-25T10:54:06.639Z,20.5
2023-02-25T10:56:00.153Z,24
2023-02-25T10:57:59.090Z,25.8
2023-02-25T11:00:01.695Z,26.4
2023-02-25T11:02:00.478Z,27.3
2023-02-25T11:04:01.375Z,23.1
2023-02-25T11:06:18.168Z,20.4
2023-02-25T11:07:58.501Z,19.2
2023-02-25T11:10:11.099Z,18.5
2023-02-25T11:12:00.666Z,19.3
2023-02-25T11:14:02.948Z,19
2023-02-25T11:16:02.246Z,18.4
2023-02-25T11:18:03.315Z,18.8
2023-02-25T11:20:01.081Z,18.6
2023-02-25T11:22:05.924Z,19
2023-02-25T11:24:00.834Z,18.1
2023-02-25T11:25:58.793Z,17.1
2023-02-25T11:27:58.241Z,18
2023-02-25T11:30:02.884Z,15.9
2023-02-25T11:32:00.558Z,16.8
2023-02-25T11:33:59.921Z,17.2
2023-02-25T11:36:00.057Z,16.4
2023-02-25T11:37:58.806Z,16.2
2023-02-25T11:39:57.570Z,16.4
2023-02-25T11:42:03.814Z,16.1
2023-02-25T11:43:57.563Z,16.5
2023-02-25T11:46:01.282Z,15
2023-02-25T11:47:58.101Z,15.1
2023-02-25T11:50:11.688Z,15
2023-02-25T11:52:05.841Z,14.8
2023-02-25T11:54:12.407Z,15.2
2023-02-25T11:56:06.724Z,15.6
2023-02-25T11:58:08.756Z,15.1
2023-02-25T12:00:12.434Z,15.4
2023-02-25T12:02:19.177Z,15.3
2023-02-25T12:04:18.051Z,14.6
2023-02-25T12:06:11.244Z,17.3
2023-02-25T12:08:13.847Z,16.2
2023-02-25T12:10:19.245Z,15.2
2023-02-25T12:12:20.725Z,15.3
2023-02-25T12:14:20.141Z,14.5
2023-02-25T12:16:26.561Z,15.9
2023-02-25T12:18:21.544Z,15.8
2023-02-25T12:20:33.094Z,15.8
2023-02-25T12:22:18.823Z,16.2
2023-02-25T12:24:20.735Z,15.9
2023-02-25T12:26:05.404Z,17.2
2023-02-25T12:28:07.893Z,16.2
2023-02-25T12:30:18.704Z,16.7
2023-02-25T12:32:14.535Z,15.4
2023-02-25T12:34:16.405Z,16.1
2023-02-25T12:36:09.304Z,17
2023-02-25T12:38:18.738Z,16.3
2023-02-25T12:40:19.041Z,17.1
2023-02-25T12:42:12.116Z,16.3
2023-02-25T12:44:12.221Z,16
2023-02-25T12:46:08.569Z,17.4
2023-02-25T12:48:11.050Z,16.9
2023-02-25T12:50:07.563Z,16.9
2023-02-25T12:52:11.074Z,17.3
2023-02-25T12:54:06.292Z,17.4
2023-02-25T12:56:10.191Z,16.3
2023-02-25T12:58:14.632Z,15.8
2023-02-25T13:00:23.142Z,17
2023-02-25T13:02:13.593Z,17.3
2023-02-25T13:04:12.457Z,17.1
2023-02-25T13:06:18.105Z,18.5
2023-02-25T13:08:19.604Z,17.1
2023-02-25T13:10:10.994Z,16.6
2023-02-25T13:12:13.754Z,17.2
2023-02-25T13:14:17.906Z,16.3
2023-02-25T13:16:12.456Z,15.9
2023-02-25T13:18:09.350Z,16.9
2023-02-25T13:20:22.274Z,15.7
2023-02-25T13:22:08.840Z,15.7
2023-02-25T13:24:08.729Z,14.9
2023-02-25T13:26:14.127Z,15.4
2023-02-25T13:28:04.868Z,15.6
2023-02-25T13:30:13.234Z,14.7
2023-02-25T13:32:13.964Z,14.5
2023-02-25T13:34:12.701Z,15.6
2023-02-25T13:36:07.903Z,16.3
2023-02-25T13:38:11.903Z,15.3
2023-02-25T13:40:20.759Z,16
2023-02-25T13:42:16.114Z,16.2
2023-02-25T13:44:18.242Z,16.7
2023-02-25T13:46:09.560Z,16.3
2023-02-25T13:48:11.299Z,15
2023-02-25T13:50:17.484Z,15.4
2023-02-25T13:52:10.273Z,15.4
2023-02-25T13:54:18.128Z,14.2
2023-02-25T13:56:19.612Z,16.4
2023-02-25T13:58:07.522Z,13.7
2023-02-25T14:00:15.981Z,15
2023-02-25T14:02:06.963Z,16.6
2023-02-25T14:04:17.000Z,14.8
2023-02-25T14:06:04.730Z,13.1
2023-02-25T14:08:11.083Z,13.8
2023-02-25T14:10:12.456Z,14.6
2023-02-25T14:12:11.958Z,14.6
2023-02-25T14:14:12.174Z,15.1
2023-02-25T14:16:04.229Z,15.6
2023-02-25T14:18:11.497Z,15.8
2023-02-25T14:20:10.343Z,16.7
2023-02-25T14:22:19.549Z,16.9
2023-02-25T14:24:03.311Z,17.2
2023-02-25T14:26:13.949Z,17.1
2023-02-25T14:28:05.039Z,16.2
2023-02-25T14:30:10.261Z,16.3
2023-02-25T14:32:22.125Z,16.5
2023-02-25T14:34:17.905Z,16
2023-02-25T14:36:05.740Z,15.6
2023-02-25T14:38:04.799Z,15.7
2023-02-25T14:40:07.116Z,15.6
2023-02-25T14:42:07.663Z,15.6
2023-02-25T14:43:57.299Z,15.7
2023-02-25T14:46:00.189Z,15.6
2023-02-25T14:48:00.876Z,15.6
2023-02-25T14:50:00.916Z,16.5
2023-02-25T14:52:11.355Z,15.2
2023-02-25T14:54:05.928Z,14.9
2023-02-25T14:56:25.355Z,14.3
2023-02-25T14:58:25.573Z,13.3
2023-02-25T15:00:10.619Z,14.2
2023-02-25T15:02:10.148Z,14
2023-02-25T15:04:10.952Z,14.2
2023-02-25T15:06:08.074Z,15
2023-02-25T15:08:12.504Z,14.4
2023-02-25T15:10:29.412Z,15.5
2023-02-25T15:12:09.689Z,14.9
2023-02-25T15:14:18.009Z,14.4
2023-02-25T15:16:13.823Z,13.5
2023-02-25T15:18:16.309Z,12
2023-02-25T15:20:11.182Z,11.9
2023-02-25T15:22:21.694Z,11.9
2023-02-25T15:23:52.816Z,13.1
2023-02-25T15:26:08.446Z,13.1
2023-02-25T15:27:54.957Z,12.4
2023-02-25T15:30:00.529Z,12
2023-02-25T15:32:21.250Z,12.8
2023-02-25T15:33:52.240Z,14.5
2023-02-25T15:35:56.249Z,13.6
2023-02-25T15:38:08.333Z,14.9
2023-02-25T15:39:54.380Z,14.7
2023-02-25T15:42:01.928Z,14.7
2023-02-25T15:43:52.573Z,14.2
2023-02-25T15:45:53.797Z,14.4
2023-02-25T15:48:24.150Z,14
2023-02-25T15:49:52.654Z,15.1
2023-02-25T15:51:55.068Z,16.1
2023-02-25T15:53:52.238Z,14.7
2023-02-25T15:55:53.193Z,15.1
2023-02-25T15:57:51.195Z,13.4
2023-02-25T15:59:52.541Z,14.5
2023-02-25T16:01:51.261Z,14
2023-02-25T16:03:51.015Z,12.8
2023-02-25T16:05:51.722Z,12.2
2023-02-25T16:08:01.337Z,11.2
2023-02-25T16:09:56.766Z,11.7
2023-02-25T16:11:52.755Z,11
2023-02-25T16:13:52.712Z,11.4
2023-02-25T16:15:55.833Z,11.5
2023-02-25T16:17:52.799Z,11.9
2023-02-25T16:19:57.688Z,11.9
2023-02-25T16:21:55.885Z,12.2
2023-02-25T16:23:50.698Z,11.6
2023-02-25T16:26:03.826Z,12.3
2023-02-25T16:27:58.693Z,12.1
2023-02-25T16:30:02.306Z,11.8
2023-02-25T16:31:57.763Z,12.5
2023-02-25T16:33:55.956Z,12
2023-02-25T16:36:06.694Z,12.4
2023-02-25T16:37:57.865Z,13.6
2023-02-25T16:39:49.809Z,14
2023-02-25T16:41:50.213Z,13.5
2023-02-25T16:43:49.846Z,13.8
2023-02-25T16:45:58.326Z,14.1
2023-02-25T16:47:55.956Z,14.8
2023-02-25T16:49:51.151Z,15.6
2023-02-25T16:51:53.654Z,15.9
2023-02-25T16:53:54.031Z,16.3
2023-02-25T16:55:56.223Z,16.2
2023-02-25T16:58:19.291Z,16.5
2023-02-25T16:59:50.167Z,18.1
2023-02-25T17:01:55.956Z,18
2023-02-25T17:03:49.294Z,18.8
2023-02-25T17:06:03.049Z,18.2
2023-02-25T17:07:54.420Z,20.4
2023-02-25T17:09:50.604Z,20.5
2023-02-25T17:11:53.297Z,20.8
2023-02-25T17:13:51.558Z,20.3
2023-02-25T17:15:50.193Z,21.1
2023-02-25T17:17:52.001Z,21.6
2023-02-25T17:19:50.889Z,21.6
2023-02-25T17:21:54.756Z,21.7
2023-02-25T17:23:48.989Z,21.8
2023-02-25T17:25:49.443Z,24.7
2023-02-25T17:27:50.298Z,25.4
2023-02-25T17:29:49.523Z,23.5
2023-02-25T17:31:51.267Z,29.3
2023-02-25T17:33:50.371Z,28.7
2023-02-25T17:35:49.584Z,25.7
2023-02-25T17:37:48.754Z,31.5
2023-02-25T17:39:49.041Z,31.5
2023-02-25T17:41:49.764Z,26.2
2023-02-25T17:43:48.169Z,38.3
2023-02-25T17:45:54.690Z,27.4
2023-02-25T17:47:47.750Z,25.1
2023-02-25T17:49:48.748Z,19.3
2023-02-25T17:51:53.840Z,20.6
2023-02-25T17:53:50.493Z,19.7
2023-02-25T17:55:47.394Z,24.6
2023-02-25T17:57:48.987Z,20.5
2023-02-25T17:59:51.449Z,18.5
2023-02-25T18:01:51.612Z,18.5
2023-02-25T18:03:47.245Z,15.6
2023-02-25T18:05:53.614Z,17.5
2023-02-25T18:08:01.889Z,14.7
2023-02-25T18:09:47.896Z,14.6
2023-02-25T18:11:53.110Z,13.6
2023-02-25T18:13:46.810Z,14.2
2023-02-25T18:15:50.852Z,15.4
2023-02-25T18:17:49.490Z,14.6
2023-02-25T18:19:47.498Z,15
2023-02-25T18:21:46.562Z,14.8
2023-02-25T18:23:47.966Z,16.5
2023-02-25T18:25:49.329Z,15.5
2023-02-25T18:27:52.359Z,15.3
2023-02-25T18:29:46.477Z,16.7
2023-02-25T18:31:46.173Z,16.5
2023-02-25T18:33:47.292Z,16.4
2023-02-25T18:35:47.891Z,18
2023-02-25T18:37:47.928Z,18.8
2023-02-25T18:39:47.963Z,18.3
2023-02-25T18:41:45.740Z,19.3
2023-02-25T18:43:45.841Z,20
2023-02-25T18:45:46.474Z,20.2
2023-02-25T18:47:46.179Z,20.9
2023-02-25T18:49:45.582Z,21.2
2023-02-25T18:51:46.484Z,21.3
2023-02-25T18:53:45.481Z,22.7
2023-02-25T18:55:45.387Z,24.6
2023-02-25T18:57:45.089Z,24.5
2023-02-25T18:59:44.966Z,24.7
2023-02-25T19:01:44.941Z,24.7
2023-02-25T19:03:44.608Z,25.2
2023-02-25T19:05:44.490Z,23.3
2023-02-25T19:07:44.909Z,24.8
2023-02-25T19:09:44.514Z,25.7
2023-02-25T19:11:44.979Z,25.3
2023-02-25T19:13:44.908Z,24.9
2023-02-25T19:15:44.309Z,25.4
2023-02-25T19:17:44.053Z,24.9
2023-02-25T19:19:43.849Z,29.1
2023-02-25T19:21:43.771Z,39.4
2023-02-25T19:23:44.564Z,63.2
2023-02-25T19:25:46.211Z,36.4
2023-02-25T19:27:43.595Z,41.3
2023-02-25T19:29:43.534Z,28.8
2023-02-25T19:31:43.573Z,29.2
2023-02-25T19:33:43.304Z,30.4
2023-02-25T19:35:43.829Z,29.6
2023-02-25T19:37:43.484Z,45.3
2023-02-25T19:39:43.899Z,27.6
2023-02-25T19:41:43.000Z,27
2023-02-25T19:43:42.860Z,26.1
2023-02-25T19:45:43.446Z,29.4
2023-02-25T19:47:42.767Z,26
2023-02-25T19:49:42.722Z,27.8
2023-02-25T19:51:42.569Z,25
2023-02-25T19:53:42.717Z,26
2023-02-25T19:55:42.578Z,26.3
2023-02-25T19:57:42.532Z,25.1
2023-02-25T19:59:42.239Z,24.8
2023-02-25T20:01:42.397Z,25.4
2023-02-25T20:03:42.149Z,25.8
2023-02-25T20:05:42.665Z,25.8
2023-02-25T20:07:42.455Z,25
2023-02-25T20:09:41.963Z,25
2023-02-25T20:11:41.975Z,24.7
2023-02-25T20:13:41.737Z,24.7
2023-02-25T20:15:41.783Z,24
2023-02-25T20:17:43.548Z,23.7
2023-02-25T20:19:41.505Z,23.4
2023-02-25T20:21:41.443Z,24.2
2023-02-25T20:23:41.320Z,23.7
2023-02-25T20:25:41.264Z,24.6
2023-02-25T20:27:41.393Z,23.8
2023-02-25T20:29:41.270Z,23.6
2023-02-25T20:31:41.279Z,23.2
2023-02-25T20:33:42.200Z,24.9
2023-02-25T20:35:41.188Z,24.3
2023-02-25T20:37:51.093Z,24
2023-02-25T20:39:48.807Z,23.4
2023-02-25T20:41:41.769Z,24.1
2023-02-25T20:43:40.677Z,24.4
2023-02-25T20:45:41.147Z,23.5
2023-02-25T20:47:40.521Z,23.4
2023-02-25T20:49:40.625Z,23.5
2023-02-25T20:51:40.687Z,23.8
2023-02-25T20:53:40.467Z,24.3
2023-02-25T20:55:39.885Z,23.4
2023-02-25T20:57:39.901Z,24.5
2023-02-25T20:59:39.675Z,24.6
2023-02-25T21:01:40.809Z,24.1
2023-02-25T21:03:39.531Z,25
2023-02-25T21:05:39.450Z,25
2023-02-25T21:07:39.387Z,25.7
2023-02-25T21:09:39.597Z,26.4
2023-02-25T21:11:39.224Z,25.5
2023-02-25T21:13:39.378Z,26.4
2023-02-25T21:15:39.134Z,26.5
2023-02-25T21:17:39.006Z,25.8
2023-02-25T21:19:39.895Z,26.1
2023-02-25T21:21:38.909Z,25.6
2023-02-25T21:23:39.633Z,26.4
2023-02-25T21:25:38.657Z,26.5
2023-02-25T21:27:38.622Z,28
2023-02-25T21:29:38.439Z,26.6
2023-02-25T21:31:39.000Z,26.8
2023-02-25T21:33:40.111Z,25.9
2023-02-25T21:35:38.322Z,27.3
2023-02-25T21:37:38.224Z,27.8
2023-02-25T21:39:39.608Z,26.5
2023-02-25T21:41:38.362Z,26.2
2023-02-25T21:43:38.591Z,25
2023-02-25T21:45:37.911Z,27.3
2023-02-25T21:47:37.792Z,26.9
2023-02-25T21:49:37.545Z,26.1
2023-02-25T21:51:37.493Z,27.2
2023-02-25T21:53:37.582Z,26.9
2023-02-25T21:55:37.285Z,26
2023-02-25T21:57:37.345Z,27
2023-02-25T21:59:37.197Z,26.6
2023-02-25T22:01:39.856Z,27.1
2023-02-25T22:03:36.981Z,25.5
2023-02-25T22:05:38.204Z,25
2023-02-25T22:07:36.950Z,25
2023-02-25T22:09:36.691Z,25.6
2023-02-25T22:11:38.037Z,25.1
2023-02-25T22:13:36.550Z,26
2023-02-25T22:15:36.532Z,24.5
2023-02-25T22:17:36.507Z,24.8
2023-02-25T22:19:36.299Z,23
2023-02-25T22:21:36.295Z,23.9
2023-02-25T22:23:36.118Z,24.2
2023-02-25T22:25:36.027Z,22.7
2023-02-25T22:27:36.014Z,24.2
2023-02-25T22:29:35.772Z,23.5
2023-02-25T22:31:36.685Z,22.7
2023-02-25T22:33:35.750Z,23.7
2023-02-25T22:35:35.638Z,23.8
2023-02-25T22:37:35.470Z,21.8
2023-02-25T22:39:35.433Z,22.6
2023-02-25T22:41:36.524Z,23
2023-02-25T22:43:35.216Z,22.6
2023-02-25T22:45:35.253Z,22.3
2023-02-25T22:47:35.036Z,22.7
2023-02-25T22:49:35.074Z,21
2023-02-25T22:51:37.750Z,21.7
2023-02-25T22:53:35.756Z,21
2023-02-25T22:55:34.819Z,20.9
2023-02-25T22:57:34.772Z,22
2023-02-25T22:59:34.606Z,21.2
2023-02-25T23:01:35.386Z,21.4
2023-02-25T23:03:35.002Z,20.9
2023-02-25T23:05:35.295Z,20.8
2023-02-25T23:07:34.340Z,20.3
2023-02-25T23:09:34.353Z,20.7
2023-02-25T23:11:34.584Z,21.5
2023-02-25T23:13:34.202Z,21.9
2023-02-25T23:15:36.294Z,20.8
2023-02-25T23:17:34.112Z,20.3
2023-02-25T23:19:33.948Z,20
2023-02-25T23:21:34.191Z,19.6
2023-02-25T23:23:34.757Z,19.7
2023-02-25T23:25:36.981Z,19.9
2023-02-25T23:27:33.568Z,19.3
2023-02-25T23:29:34.324Z,19.3
2023-02-25T23:31:35.462Z,19.9
2023-02-25T23:33:33.786Z,19
2023-02-25T23:35:33.520Z,19.5
2023-02-25T23:37:33.252Z,19.4
2023-02-25T23:39:33.338Z,19.7
2023-02-25T23:41:37.011Z,19.7
2023-02-25T23:43:33.029Z,18.4
2023-02-25T23:45:33.081Z,19.2
2023-02-25T23:47:32.966Z,20.4
2023-02-25T23:49:32.943Z,19.2
2023-02-25T23:51:33.723Z,19.2
2023-02-25T23:53:32.952Z,20.1
2023-02-25T23:55:34.638Z,20.1
2023-02-25T23:57:32.749Z,19.7
2023-02-25T23:59:32.865Z,19.9
